Time;durP1;ratioP1;P1;durP2;ratioP2;P2;SDS_P1;SDS_P2;PMS_P1;PMS_P2;Temp;Humidity;BMP_temperature;BMP_pressure;BME280_temperature;BME280_humidity;BME280_pressure;Samples;Min_cycle;Max_cycle;Signal;HPM_P1;HPM_P2
2022/12/03 00:01:43;;;;;;;17.35;13.07;;;;;;;3.55;100.00;102740.22;4993948;28;20336;-47
2022/12/03 00:04:08;;;;;;;17.77;13.60;;;;;;;3.57;100.00;102734.06;5014230;28;20275;-46
2022/12/03 00:06:33;;;;;;;18.08;12.57;;;;;;;3.46;100.00;102741.78;4993676;28;20192;-45
2022/12/03 00:08:59;;;;;;;19.25;13.80;;;;;;;3.48;100.00;102723.28;4998501;28;20207;-45
2022/12/03 00:11:24;;;;;;;17.50;13.48;;;;;;;3.50;100.00;102734.81;4997097;28;20189;-46
2022/12/03 00:13:50;;;;;;;19.25;14.40;;;;;;;3.40;100.00;102724.88;4990612;28;20730;-45
2022/12/03 00:16:15;;;;;;;17.95;13.55;;;;;;;3.37;100.00;102720.41;4990132;28;20167;-44
2022/12/03 00:18:41;;;;;;;18.75;13.40;;;;;;;3.33;100.00;102729.13;4990068;28;20213;-45
2022/12/03 00:21:06;;;;;;;17.58;11.18;;;;;;;3.27;100.00;102723.69;4989834;28;20176;-45
2022/12/03 00:23:32;;;;;;;17.60;11.70;;;;;;;3.29;100.00;102724.63;4990263;28;20654;-44
2022/12/03 00:25:57;;;;;;;16.95;12.60;;;;;;;3.33;100.00;102715.00;4989877;28;20168;-43
2022/12/03 00:28:23;;;;;;;18.83;12.77;;;;;;;3.29;100.00;102722.84;4990130;28;20208;-43
2022/12/03 00:30:51;;;;;;;18.00;13.15;;;;;;;3.29;100.00;102727.28;4990035;28;20181;-45
2022/12/03 00:33:17;;;;;;;20.42;13.88;;;;;;;3.32;100.00;102723.78;4990326;28;20158;-45
2022/12/03 00:35:42;;;;;;;16.33;11.57;;;;;;;3.32;100.00;102716.72;4990247;28;20157;-43
2022/12/03 00:38:08;;;;;;;14.55;10.18;;;;;;;3.32;100.00;102721.16;4990081;28;20716;-42
2022/12/03 00:40:33;;;;;;;12.75;9.18;;;;;;;3.33;100.00;102728.25;4990371;28;20158;-43
2022/12/03 00:42:59;;;;;;;13.25;8.48;;;;;;;3.35;100.00;102710.63;4989022;28;20205;-44
2022/12/03 00:45:24;;;;;;;12.57;8.18;;;;;;;3.35;100.00;102713.28;4989939;28;20181;-45
2022/12/03 00:47:50;;;;;;;15.75;9.13;;;;;;;3.35;100.00;102723.88;4990407;28;20245;-49
2022/12/03 00:50:16;;;;;;;11.27;8.35;;;;;;;3.37;100.00;102716.81;4994780;28;20201;-47
2022/12/03 00:52:42;;;;;;;13.82;8.25;;;;;;;3.39;100.00;102708.09;5002852;28;20230;-47
2022/12/03 00:55:08;;;;;;;11.45;8.20;;;;;;;3.39;100.00;102713.38;5002505;28;20192;-47
2022/12/03 00:57:33;;;;;;;11.77;8.63;;;;;;;3.48;100.00;102707.38;5001034;28;20206;-48
2022/12/03 01:00:00;;;;;;;13.50;8.35;;;;;;;3.47;100.00;102705.56;5001754;28;20193;-48
2022/12/03 01:02:26;;;;;;;15.82;10.15;;;;;;;3.43;100.00;102709.94;5003072;28;20224;-46
2022/12/03 01:04:51;;;;;;;14.45;10.77;;;;;;;3.47;100.00;102709.13;5000710;28;20197;-49
2022/12/03 01:07:17;;;;;;;17.27;10.13;;;;;;;3.44;100.00;102721.44;4999885;28;20332;-46
2022/12/03 01:09:43;;;;;;;15.82;11.23;;;;;;;3.47;100.00;102709.13;4999823;28;20608;-47
2022/12/03 01:12:08;;;;;;;15.50;10.35;;;;;;;3.47;100.00;102706.47;4998969;28;20302;-46
2022/12/03 01:14:34;;;;;;;15.13;10.20;;;;;;;3.49;100.00;102718.00;4996368;28;20169;-46
2022/12/03 01:16:59;;;;;;;17.88;11.55;;;;;;;3.46;100.00;102719.69;4999862;28;20240;-49
2022/12/03 01:19:25;;;;;;;17.77;12.88;;;;;;;3.44;100.00;102705.53;4998777;28;20248;-46
2022/12/03 01:21:51;;;;;;;20.95;14.25;;;;;;;3.47;100.00;102703.81;4997218;28;20215;-47
2022/12/03 01:24:18;;;;;;;22.80;14.63;;;;;;;3.50;100.00;102706.56;5000199;28;20671;-48
2022/12/03 01:26:44;;;;;;;20.58;13.77;;;;;;;3.48;100.00;102704.72;4997353;28;20890;-42
2022/12/03 01:29:09;;;;;;;18.02;13.57;;;;;;;3.50;100.00;102708.31;5001987;28;20560;-42
2022/12/03 01:34:19;;;;;;;15.68;11.73;;;;;;;3.48;100.00;102710.91;4998272;28;20644;-43
2022/12/03 01:36:45;;;;;;;16.85;12.13;;;;;;;3.49;100.00;102698.56;5000518;28;20289;-43
2022/12/03 01:39:10;;;;;;;18.67;12.38;;;;;;;3.51;100.00;102708.31;4998205;28;20606;-41
2022/12/03 01:41:37;;;;;;;16.38;12.35;;;;;;;3.55;100.00;102704.00;4996862;28;20523;-42
2022/12/03 01:44:09;;;;;;;16.80;12.10;;;;;;;3.49;100.00;102704.75;5003212;28;20189;-42
2022/12/03 01:46:39;;;;;;;15.77;11.30;;;;;;;3.46;100.00;102704.69;5002048;28;20230;-43
2022/12/03 01:49:04;;;;;;;16.90;11.43;;;;;;;3.53;100.00;102696.88;4997757;28;20579;-41
2022/12/03 01:51:30;;;;;;;16.40;10.82;;;;;;;3.47;100.00;102697.63;5002669;28;20189;-42
2022/12/03 01:53:57;;;;;;;16.35;10.30;;;;;;;3.46;100.00;102696.75;5018152;28;20313;-41
2022/12/03 01:56:23;;;;;;;13.98;8.85;;;;;;;3.49;100.00;102691.50;4999489;28;20559;-41
2022/12/03 01:58:48;;;;;;;11.95;8.48;;;;;;;3.54;100.00;102688.94;4998351;28;20359;-42
2022/12/03 02:01:16;;;;;;;12.40;8.27;;;;;;;3.56;100.00;102688.97;4998875;28;20251;-41
2022/12/03 02:03:44;;;;;;;10.93;7.07;;;;;;;3.52;100.00;102693.34;5010701;28;20232;-44
2022/12/03 02:06:19;;;;;;;11.10;7.63;;;;;;;3.49;100.00;102693.25;5010733;28;20235;-47
2022/12/03 02:08:45;;;;;;;11.57;7.70;;;;;;;3.49;100.00;102701.22;5011856;28;20732;-44
2022/12/03 02:11:20;;;;;;;10.13;7.15;;;;;;;3.47;100.00;102700.28;5011725;28;20184;-42
2022/12/03 02:13:48;;;;;;;11.52;6.55;;;;;;;3.48;100.00;102688.84;5011966;28;20172;-44
2022/12/03 02:16:14;;;;;;;9.07;6.75;;;;;;;3.47;100.00;102693.22;5011392;28;20180;-45
2022/12/03 02:18:40;;;;;;;10.13;6.35;;;;;;;3.44;100.00;102686.97;5011765;28;20212;-43
2022/12/03 02:21:36;;;;;;;11.27;7.18;;;;;;;3.42;100.00;102691.34;5011612;28;20196;-46
2022/12/03 02:24:06;;;;;;;9.70;6.90;;;;;;;3.47;100.00;102697.63;5011740;28;20176;-42
2022/12/03 02:26:32;;;;;;;11.27;7.05;;;;;;;3.48;100.00;102687.06;5011481;28;20188;-42
2022/12/03 02:28:57;;;;;;;13.88;7.70;;;;;;;3.54;100.00;102694.22;5026376;28;20215;-44
2022/12/03 02:31:23;;;;;;;9.90;7.38;;;;;;;3.50;100.00;102693.28;5011299;28;20539;-44
2022/12/03 02:33:49;;;;;;;10.18;6.97;;;;;;;3.45;100.00;102692.28;5010652;28;20588;-46
2022/12/03 02:36:15;;;;;;;12.45;7.32;;;;;;;3.41;100.00;102685.16;5011376;28;20173;-43
2022/12/03 02:38:43;;;;;;;8.55;7.60;;;;;;;3.41;100.00;102689.53;5010977;28;20609;-46
2022/12/03 02:42:33;;;;;;;9.85;7.72;;;;;;;3.42;100.00;102683.41;5000263;28;20280;-46
2022/12/03 02:43:59;;;;;;;10.70;7.15;;;;;;;3.44;100.00;102694.94;4999431;28;20234;-47
2022/12/03 02:46:25;;;;;;;11.23;8.48;;;;;;;3.47;100.00;102690.56;4996654;28;20565;-45
2022/12/03 02:48:51;;;;;;;12.15;8.13;;;;;;;3.48;100.00;102686.19;4996642;28;20566;-47
2022/12/03 02:51:16;;;;;;;10.63;8.27;;;;;;;3.45;100.00;102683.44;5015008;28;20550;-44
2022/12/03 02:53:46;;;;;;;12.93;8.50;;;;;;;3.46;100.00;102688.78;4993369;28;20182;-46
2022/12/03 02:56:15;;;;;;;11.38;7.57;;;;;;;3.43;100.00;102682.53;4995028;28;20557;-46
2022/12/03 02:58:43;;;;;;;11.32;7.20;;;;;;;3.49;100.00;102687.97;4997972;28;20209;-47
2022/12/03 03:01:09;;;;;;;13.27;7.40;;;;;;;3.47;100.00;102679.97;4996131;28;20629;-45
2022/12/03 03:03:36;;;;;;;15.73;8.82;;;;;;;3.45;100.00;102688.75;4998924;28;20628;-45
2022/12/03 03:06:05;;;;;;;12.73;8.27;;;;;;;3.41;100.00;102689.53;4996934;28;20206;-46
2022/12/03 03:08:31;;;;;;;12.70;7.97;;;;;;;3.44;100.00;102685.22;4996358;28;20231;-46
2022/12/03 03:10:59;;;;;;;11.40;8.32;;;;;;;3.40;100.00;102682.47;5000424;28;20682;-46
2022/12/03 03:13:25;;;;;;;8.93;7.32;;;;;;;3.37;100.00;102680.66;4999883;28;20693;-47
2022/12/03 03:15:51;;;;;;;14.23;7.75;;;;;;;3.39;100.00;102680.66;4999081;28;20268;-48
2022/12/03 03:18:17;;;;;;;7.40;6.65;;;;;;;3.38;100.00;102682.44;4998987;28;20215;-45
2022/12/03 03:20:43;;;;;;;9.43;7.43;;;;;;;3.37;100.00;102677.09;5005977;28;20604;-46
2022/12/03 03:23:09;;;;;;;9.32;7.35;;;;;;;3.39;100.00;102672.72;4998885;28;20209;-44
2022/12/03 03:25:35;;;;;;;12.48;8.15;;;;;;;3.36;100.00;102668.25;5000699;28;20285;-46
2022/12/03 03:28:01;;;;;;;11.05;7.28;;;;;;;3.33;100.00;102665.56;4998413;28;20648;-45
2022/12/03 03:30:27;;;;;;;11.40;6.53;;;;;;;3.36;100.00;102675.31;4998113;28;20193;-45
2022/12/03 03:32:53;;;;;;;10.05;6.97;;;;;;;3.34;100.00;102669.97;4995904;28;20169;-47
2022/12/03 03:35:18;;;;;;;8.07;7.05;;;;;;;3.37;100.00;102674.44;4996421;28;20553;-45
2022/12/03 03:37:44;;;;;;;9.00;7.30;;;;;;;3.37;100.00;102661.19;4999247;28;20205;-45
2022/12/03 03:40:10;;;;;;;9.63;7.28;;;;;;;3.36;100.00;102660.31;4998667;28;20201;-44
2022/12/03 03:42:36;;;;;;;8.85;6.90;;;;;;;3.36;100.00;102668.25;5012069;28;20319;-46
2022/12/03 03:45:03;;;;;;;10.55;6.93;;;;;;;3.39;100.00;102660.38;4996430;28;20176;-45
2022/12/03 03:47:28;;;;;;;9.77;7.95;;;;;;;3.37;100.00;102661.19;4994526;28;20652;-47
2022/12/03 03:49:54;;;;;;;8.65;7.20;;;;;;;3.34;100.00;102659.38;4998748;28;20201;-46
2022/12/03 03:52:21;;;;;;;10.80;7.05;;;;;;;3.37;100.00;102655.88;4997159;28;20216;-46
2022/12/03 03:54:47;;;;;;;13.02;8.73;;;;;;;3.32;100.00;102652.25;5000075;28;20284;-45
2022/12/03 03:57:13;;;;;;;15.43;9.98;;;;;;;3.26;100.00;102661.00;4997161;28;20184;-46
2022/12/03 03:59:39;;;;;;;15.80;11.18;;;;;;;3.12;100.00;102654.50;4995783;28;20282;-46
2022/12/03 04:02:04;;;;;;;14.80;9.40;;;;;;;3.13;100.00;102657.19;4996320;28;20201;-46
2022/12/03 04:04:34;;;;;;;14.27;10.48;;;;;;;3.10;100.00;102657.09;5014336;28;20181;-44
2022/12/03 04:06:59;;;;;;;13.40;9.90;;;;;;;3.13;100.00;102650.97;4997064;28;20659;-45
2022/12/03 04:09:25;;;;;;;16.25;10.90;;;;;;;3.14;100.00;102652.78;4999538;28;20267;-46
2022/12/03 04:14:34;;;;;;;17.45;11.23;;;;;;;3.11;100.00;102656.25;4997888;28;20168;-46
2022/12/03 04:17:02;;;;;;;15.77;11.35;;;;;;;3.09;100.00;102650.91;4998515;28;20546;-46
2022/12/03 04:19:27;;;;;;;15.63;11.32;;;;;;;3.05;100.00;102648.16;4995620;28;20224;-46
2022/12/03 04:24:37;;;;;;;17.27;12.70;;;;;;;2.88;100.00;102650.41;4998269;28;20192;-44
2022/12/03 04:29:46;;;;;;;18.85;12.35;;;;;;;2.83;100.00;102642.38;5006579;28;20200;-44
2022/12/03 04:37:39;;;;;;;17.85;11.45;;;;;;;2.84;100.00;102649.47;5013387;28;20240;-42
2022/12/03 04:40:59;;;;;;;15.95;11.68;;;;;;;2.89;100.00;102644.28;5013713;28;20588;-43
2022/12/03 04:42:51;;;;;;;16.75;11.45;;;;;;;2.84;100.00;102649.47;5013409;28;20226;-43
2022/12/03 04:45:16;;;;;;;16.90;11.82;;;;;;;2.79;100.00;102643.16;5013259;28;20708;-45
2022/12/03 04:47:42;;;;;;;18.38;10.90;;;;;;;2.79;100.00;102639.63;5013580;28;20169;-44
2022/12/03 04:50:08;;;;;;;14.40;11.38;;;;;;;2.75;100.00;102640.41;5012843;28;20272;-45
2022/12/03 04:52:33;;;;;;;15.18;11.10;;;;;;;2.71;100.00;102630.63;5013491;28;20157;-44
2022/12/03 04:54:59;;;;;;;17.55;11.63;;;;;;;2.72;100.00;102643.00;5012522;28;20215;-44
2022/12/03 04:57:24;;;;;;;16.00;11.45;;;;;;;2.71;100.00;102638.56;5013174;28;20555;-43
2022/12/03 04:59:49;;;;;;;17.38;11.48;;;;;;;2.69;100.00;102649.13;5013450;28;20207;-44
2022/12/03 05:02:15;;;;;;;14.10;11.00;;;;;;;2.65;100.00;102642.84;5012870;28;20197;-47
2022/12/03 05:04:40;;;;;;;16.75;11.80;;;;;;;2.57;100.00;102646.19;5013178;28;20193;-43
2022/12/03 05:07:06;;;;;;;18.70;11.63;;;;;;;2.57;100.00;102633.84;5013148;28;20172;-43
2022/12/03 05:09:32;;;;;;;15.57;10.95;;;;;;;2.54;100.00;102643.47;5012267;28;20275;-44
2022/12/03 05:11:57;;;;;;;16.50;11.90;;;;;;;2.48;100.00;102634.50;5013149;28;20173;-47
2022/12/03 05:14:23;;;;;;;16.90;11.60;;;;;;;2.47;100.00;102643.31;5011789;28;20247;-43
2022/12/03 05:16:48;;;;;;;15.90;11.13;;;;;;;2.54;100.00;102633.78;5013063;28;20188;-44
2022/12/03 05:19:14;;;;;;;16.42;12.27;;;;;;;2.49;100.00;102635.38;5012062;28;20671;-45
2022/12/03 05:21:39;;;;;;;18.45;12.00;;;;;;;2.45;100.00;102645.03;5012615;28;20181;-41
2022/12/03 05:24:05;;;;;;;16.23;11.85;;;;;;;2.39;100.00;102639.56;5011613;28;20168;-45
2022/12/03 05:26:30;;;;;;;16.67;11.73;;;;;;;2.46;100.00;102637.97;5012706;28;20330;-43
2022/12/03 05:28:56;;;;;;;16.23;11.25;;;;;;;2.53;100.00;102636.38;5011112;28;20192;-47
2022/12/03 05:31:21;;;;;;;15.85;11.75;;;;;;;2.44;100.00;102632.63;5012776;28;20165;-44
2022/12/03 05:33:47;;;;;;;14.70;11.23;;;;;;;2.36;100.00;102639.53;5012710;28;20161;-45
2022/12/03 05:36:13;;;;;;;15.80;11.70;;;;;;;2.35;100.00;102639.47;5012023;28;20655;-46
2022/12/03 05:38:38;;;;;;;17.23;12.13;;;;;;;2.37;100.00;102638.66;5012523;28;20235;-43
2022/12/03 05:42:52;;;;;;;18.80;12.25;;;;;;;2.27;100.00;102628.69;5012468;28;20168;-43
2022/12/03 05:43:50;;;;;;;18.48;12.63;;;;;;;2.27;100.00;102639.25;5011708;28;20216;-44
2022/12/03 05:46:15;;;;;;;20.27;12.18;;;;;;;2.34;100.00;102646.50;5012132;28;20241;-45
2022/12/03 05:48:41;;;;;;;23.88;13.73;;;;;;;2.31;100.00;102627.03;5012346;28;20258;-48
2022/12/03 05:51:06;;;;;;;18.17;13.48;;;;;;;2.25;100.00;102628.66;5012518;28;20558;-43
2022/12/03 05:53:32;;;;;;;20.10;12.73;;;;;;;2.32;100.00;102628.78;5011914;28;20635;-43
2022/12/03 05:55:58;;;;;;;16.80;11.50;;;;;;;2.33;100.00;102625.31;5011210;28;20176;-43
2022/12/03 05:58:25;;;;;;;19.42;12.25;;;;;;;2.30;100.00;102619.97;5012248;28;20280;-45
2022/12/03 06:00:50;;;;;;;19.63;12.98;;;;;;;2.30;100.00;102623.50;5010878;28;20199;-43
2022/12/03 06:03:16;;;;;;;17.58;12.32;;;;;;;2.27;100.00;102631.31;5012040;28;20562;-43
2022/12/03 06:05:41;;;;;;;19.90;13.00;;;;;;;2.29;100.00;102623.44;5012031;28;20219;-43
2022/12/03 06:08:07;;;;;;;16.40;12.10;;;;;;;2.33;100.00;102626.19;5012072;28;20177;-43
2022/12/03 06:10:32;;;;;;;16.48;11.85;;;;;;;2.26;100.00;102626.91;5011832;28;20172;-45
2022/12/03 06:12:58;;;;;;;19.52;12.80;;;;;;;2.31;100.00;102625.25;5010829;28;20165;-44
2022/12/03 06:15:23;;;;;;;17.65;12.68;;;;;;;2.34;100.00;102632.38;5012150;28;20161;-44
2022/12/03 06:17:49;;;;;;;20.02;12.82;;;;;;;2.35;100.00;102621.84;5011912;28;20222;-44
2022/12/03 06:20:18;;;;;;;20.67;15.18;;;;;;;2.34;100.00;102627.09;5011863;28;20208;-45
2022/12/03 06:22:44;;;;;;;19.70;13.32;;;;;;;2.24;100.00;102628.63;5011845;28;20272;-42
2022/12/03 06:25:10;;;;;;;20.55;13.27;;;;;;;2.22;100.00;102627.69;5011785;28;20251;-45
2022/12/03 06:27:36;;;;;;;23.50;15.77;;;;;;;2.27;100.00;102618.09;5011709;28;20575;-44
2022/12/03 06:30:02;;;;;;;26.88;15.63;;;;;;;2.22;100.00;102623.28;5011363;28;20192;-46
2022/12/03 06:32:28;;;;;;;21.90;14.40;;;;;;;2.33;100.00;102622.66;5011559;28;20195;-45
2022/12/03 06:34:54;;;;;;;21.42;14.00;;;;;;;2.22;100.00;102630.31;5011516;28;20180;-44
2022/12/03 06:37:19;;;;;;;21.02;14.40;;;;;;;2.13;100.00;102615.13;5011382;28;20168;-44
2022/12/03 06:39:44;;;;;;;21.60;14.68;;;;;;;2.08;100.00;102621.13;5011255;28;20271;-44
2022/12/03 06:42:10;;;;;;;23.25;14.52;;;;;;;2.10;100.00;102607.13;5009580;28;20663;-45
2022/12/03 06:44:35;;;;;;;21.30;13.95;;;;;;;2.17;100.00;102608.19;5011461;28;20290;-45
2022/12/03 06:47:01;;;;;;;24.25;15.60;;;;;;;2.02;100.00;102613.97;5011379;28;20247;-45
2022/12/03 06:49:27;;;;;;;21.20;14.20;;;;;;;1.95;100.00;102615.56;5008844;28;20275;-44
2022/12/03 06:51:52;;;;;;;25.27;15.93;;;;;;;1.98;100.00;102622.66;5011245;28;20200;-43
2022/12/03 06:54:18;;;;;;;20.02;13.95;;;;;;;2.00;100.00;102623.59;5011032;28;20161;-44
2022/12/03 06:56:43;;;;;;;21.92;15.27;;;;;;;1.96;100.00;102605.88;5009975;28;20483;-47
2022/12/03 06:59:09;;;;;;;23.65;14.55;;;;;;;1.90;100.00;102617.16;5010970;28;20464;-42
2022/12/03 07:01:34;;;;;;;23.52;15.82;;;;;;;2.00;100.00;102627.13;5011051;28;20172;-50
2022/12/03 07:04:00;;;;;;;21.92;14.98;;;;;;;2.02;100.00;102614.84;5009915;28;20614;-47
2022/12/03 07:06:25;;;;;;;23.85;15.48;;;;;;;2.09;100.00;102613.25;5010740;28;20165;-44
2022/12/03 07:08:51;;;;;;;20.77;14.93;;;;;;;2.10;100.00;102611.50;5010924;28;20204;-44
2022/12/03 07:11:32;;;;;;;21.90;14.85;;;;;;;1.99;100.00;102614.78;5010309;28;20179;-43
2022/12/03 07:14:01;;;;;;;21.77;14.48;;;;;;;2.02;100.00;102613.97;5025896;28;20205;-44
2022/12/03 07:16:27;;;;;;;21.10;13.60;;;;;;;2.02;100.00;102612.22;5010363;28;20719;-44
2022/12/03 07:18:53;;;;;;;21.13;13.73;;;;;;;1.93;100.00;102609.34;5010097;28;20718;-45
2022/12/03 07:21:18;;;;;;;18.73;12.40;;;;;;;2.05;100.00;102596.41;5010680;28;20165;-45
2022/12/03 07:23:44;;;;;;;20.83;13.60;;;;;;;1.93;100.00;102601.41;5008797;28;20239;-42
2022/12/03 07:26:09;;;;;;;22.20;13.43;;;;;;;2.00;100.00;102613.03;5008910;28;20268;-44
2022/12/03 07:28:35;;;;;;;18.45;12.43;;;;;;;1.94;100.00;102597.88;5009991;28;20234;-46
2022/12/03 07:31:01;;;;;;;21.08;14.10;;;;;;;1.97;100.00;102602.38;4998866;28;20184;-43
2022/12/03 07:33:26;;;;;;;17.98;13.32;;;;;;;2.04;100.00;102599.91;4995335;28;20180;-42
2022/12/03 07:35:52;;;;;;;23.83;13.10;;;;;;;1.94;100.00;102602.28;4997789;28;20640;-42
2022/12/03 07:38:18;;;;;;;21.60;13.75;;;;;;;1.95;100.00;102596.16;4997963;28;20219;-43
2022/12/03 07:40:44;;;;;;;21.05;12.95;;;;;;;2.01;100.00;102596.28;4997189;28;20200;-44
2022/12/03 07:43:09;;;;;;;21.77;14.50;;;;;;;1.89;100.00;102593.34;4999971;28;20208;-42
2022/12/03 07:45:35;;;;;;;19.90;14.48;;;;;;;1.84;100.00;102594.13;4998172;28;20330;-42
2022/12/03 07:48:00;;;;;;;21.48;13.75;;;;;;;1.85;100.00;102598.53;4995699;28;20181;-43
2022/12/03 07:50:27;;;;;;;20.98;13.57;;;;;;;1.99;100.00;102593.63;5012794;28;20185;-43
2022/12/03 07:52:55;;;;;;;22.75;14.50;;;;;;;1.87;100.00;102593.31;4989095;28;20196;-43
2022/12/03 07:55:21;;;;;;;21.65;14.88;;;;;;;1.91;100.00;102597.81;4995126;28;20339;-44
2022/12/03 07:57:47;;;;;;;20.45;13.82;;;;;;;2.00;100.00;102595.41;5001183;28;20560;-42
2022/12/03 08:00:14;;;;;;;18.95;12.98;;;;;;;2.04;100.00;102586.69;4996818;28;20232;-45
2022/12/03 08:02:40;;;;;;;20.92;14.93;;;;;;;2.01;100.00;102589.28;4996809;28;20197;-43
2022/12/03 08:05:06;;;;;;;24.50;15.65;;;;;;;2.02;100.00;102598.09;4997914;28;20176;-43
2022/12/03 08:07:31;;;;;;;21.05;14.68;;;;;;;1.92;100.00;102596.06;4996286;28;20193;-43
2022/12/03 08:09:57;;;;;;;25.55;15.00;;;;;;;1.87;100.00;102590.66;5018813;28;20202;-47
2022/12/03 08:12:40;;;;;;;25.33;14.85;;;;;;;1.87;100.00;102587.13;4997131;28;20264;-46
2022/12/03 08:15:13;;;;;;;21.17;14.93;;;;;;;1.83;100.00;102594.06;4995032;28;20181;-46
2022/12/03 08:17:39;;;;;;;19.85;14.38;;;;;;;1.86;100.00;102588.88;4999234;28;20192;-46
2022/12/03 08:20:16;;;;;;;24.42;15.43;;;;;;;1.64;100.00;102590.97;4995067;28;20455;-45
2022/12/03 08:22:43;;;;;;;23.80;14.38;;;;;;;1.84;100.00;102593.25;4997083;28;20197;-47
2022/12/03 08:25:27;;;;;;;24.02;15.02;;;;;;;1.89;100.00;102594.25;4997024;28;20406;-46
2022/12/03 08:27:59;;;;;;;23.25;15.45;;;;;;;1.86;100.00;102594.19;4997138;28;20193;-46
2022/12/03 08:30:25;;;;;;;23.48;15.80;;;;;;;1.80;100.00;102581.69;4999291;28;20215;-46
2022/12/03 08:32:50;;;;;;;23.20;15.55;;;;;;;1.80;100.00;102589.63;4996176;28;20196;-47
2022/12/03 08:35:25;;;;;;;22.55;14.93;;;;;;;1.77;100.00;102589.53;4994165;28;20181;-47
2022/12/03 08:38:11;;;;;;;23.77;15.52;;;;;;;1.86;100.00;102591.53;4999070;28;20185;-46
2022/12/03 08:40:42;;;;;;;22.17;15.43;;;;;;;1.81;100.00;102591.38;4994809;28;20201;-48
2022/12/03 08:43:31;;;;;;;22.65;14.93;;;;;;;1.90;100.00;102592.50;4997158;28;20216;-46
2022/12/03 08:45:57;;;;;;;20.55;14.98;;;;;;;1.80;100.00;102588.72;4998707;28;20223;-47
2022/12/03 08:48:32;;;;;;;22.15;15.32;;;;;;;1.88;100.00;102584.53;4996940;28;20291;-46
2022/12/03 08:51:24;;;;;;;22.90;15.27;;;;;;;1.87;100.00;102580.09;4997750;28;20184;-48
2022/12/03 08:53:58;;;;;;;20.77;14.18;;;;;;;1.78;100.00;102580.75;4996219;28;20178;-47
2022/12/03 08:56:29;;;;;;;21.70;14.13;;;;;;;1.70;100.00;102581.41;4997455;28;20605;-46
2022/12/03 08:59:01;;;;;;;21.95;13.13;;;;;;;1.60;100.00;102583.81;4996294;28;20259;-46
2022/12/03 09:01:31;;;;;;;16.50;12.40;;;;;;;1.66;100.00;102577.78;4994320;28;20641;-46
2022/12/03 09:04:13;;;;;;;21.23;14.25;;;;;;;1.63;100.00;102575.94;4998210;28;20193;-46
2022/12/03 09:06:39;;;;;;;20.83;13.55;;;;;;;1.63;100.00;102583.88;4994168;28;20535;-47
2022/12/03 09:09:04;;;;;;;23.63;14.20;;;;;;;1.64;100.00;102585.69;4996412;28;20212;-45
2022/12/03 09:11:30;;;;;;;20.63;14.70;;;;;;;1.52;100.00;102574.75;4995986;28;20177;-47
2022/12/03 09:13:55;;;;;;;22.88;14.60;;;;;;;1.54;100.00;102575.69;4998665;28;20181;-47
2022/12/03 09:16:21;;;;;;;23.77;14.18;;;;;;;1.58;100.00;102572.28;5001227;28;20239;-46
2022/12/03 09:18:46;;;;;;;21.02;14.18;;;;;;;1.59;100.00;102583.75;4998254;28;20209;-43
2022/12/03 09:21:12;;;;;;;22.58;14.55;;;;;;;1.54;100.00;102575.69;5006842;28;20173;-47
2022/12/03 09:23:37;;;;;;;20.80;13.57;;;;;;;1.46;100.00;102577.22;5011175;28;20203;-44
2022/12/03 09:26:03;;;;;;;19.75;14.23;;;;;;;1.54;100.00;102567.78;5013066;28;20184;-44
2022/12/03 09:28:28;;;;;;;20.40;13.75;;;;;;;1.47;100.00;102583.44;5012784;28;20599;-45
2022/12/03 09:30:54;;;;;;;22.70;15.02;;;;;;;1.48;100.00;102579.94;5012721;28;20551;-42
2022/12/03 09:33:19;;;;;;;22.55;15.02;;;;;;;1.60;100.00;102581.16;5012757;28;20344;-43
2022/12/03 09:35:45;;;;;;;26.85;14.93;;;;;;;1.66;100.00;102575.13;5012493;28;20236;-46
2022/12/03 09:38:10;;;;;;;22.42;15.52;;;;;;;1.65;100.00;102571.59;5012405;28;20173;-46
2022/12/03 09:40:36;;;;;;;24.20;15.27;;;;;;;1.75;100.00;102569.19;5012773;28;20267;-44
2022/12/03 09:43:01;;;;;;;23.75;14.82;;;;;;;1.76;100.00;102565.72;5012336;28;20189;-44
2022/12/03 09:45:27;;;;;;;21.98;14.93;;;;;;;1.74;100.00;102562.13;5012973;28;20196;-44
2022/12/03 09:47:53;;;;;;;21.40;14.38;;;;;;;1.64;100.00;102551.31;5012590;28;20173;-43
2022/12/03 09:50:23;;;;;;;21.65;15.00;;;;;;;1.63;100.00;102560.09;5012498;28;20188;-45
2022/12/03 09:52:50;;;;;;;23.35;14.57;;;;;;;1.62;100.00;102563.59;5013371;28;20175;-42
2022/12/03 09:55:25;;;;;;;25.55;15.20;;;;;;;1.60;100.00;102548.56;5012736;28;20190;-44
2022/12/03 09:57:52;;;;;;;23.58;15.07;;;;;;;1.62;100.00;102552.16;5013058;28;20360;-45
2022/12/03 10:00:24;;;;;;;21.90;14.73;;;;;;;1.63;100.00;102544.25;5013326;28;20262;-46
2022/12/03 10:02:52;;;;;;;20.85;14.27;;;;;;;1.67;100.00;102541.69;5013550;28;20188;-45
2022/12/03 10:05:21;;;;;;;22.08;15.73;;;;;;;1.72;100.00;102545.34;5012285;28;20546;-44
2022/12/03 10:07:49;;;;;;;23.23;14.30;;;;;;;1.72;100.00;102543.59;5012226;28;20191;-44
2022/12/03 10:10:17;;;;;;;23.13;15.05;;;;;;;1.76;100.00;102541.94;5012335;28;20213;-43
2022/12/03 10:12:43;;;;;;;24.30;16.58;;;;;;;1.80;100.00;102543.81;5012493;28;20189;-44
2022/12/03 10:15:12;;;;;;;23.25;16.20;;;;;;;1.93;100.00;102530.03;5012883;28;20187;-44
2022/12/03 10:17:38;;;;;;;25.25;16.35;;;;;;;1.88;100.00;102529.03;5013256;28;20184;-44
2022/12/03 10:20:04;;;;;;;22.48;15.57;;;;;;;1.83;100.00;102525.38;5013216;28;20201;-47
2022/12/03 10:22:35;;;;;;;21.90;15.38;;;;;;;1.88;100.00;102529.03;5013057;28;20197;-44
2022/12/03 10:25:14;;;;;;;24.05;16.00;;;;;;;1.97;100.00;102523.09;5012966;28;20262;-45
2022/12/03 10:27:40;;;;;;;24.45;16.50;;;;;;;1.89;100.00;102522.00;5012099;28;20161;-45
2022/12/03 10:30:19;;;;;;;25.95;16.70;;;;;;;1.84;100.00;102524.53;5011964;28;20215;-45
2022/12/03 10:32:47;;;;;;;25.60;16.70;;;;;;;1.94;100.00;102521.22;5012764;28;20563;-43
2022/12/03 10:35:16;;;;;;;24.70;15.25;;;;;;;1.97;100.00;102513.41;5012724;28;20221;-44
2022/12/03 10:37:58;;;;;;;26.00;16.15;;;;;;;2.01;100.00;102519.63;5012560;28;20676;-45
2022/12/03 10:40:32;;;;;;;23.42;16.35;;;;;;;1.98;100.00;102519.56;5013012;28;20648;-43
2022/12/03 10:43:17;;;;;;;23.13;16.42;;;;;;;1.96;100.00;102518.63;5011257;28;20311;-44
2022/12/03 10:45:46;;;;;;;24.17;15.55;;;;;;;2.03;100.00;102500.34;5012338;28;20650;-43
2022/12/03 10:48:18;;;;;;;27.35;18.48;;;;;;;2.02;100.00;102502.94;5011609;28;20192;-45
2022/12/03 10:50:52;;;;;;;25.90;16.88;;;;;;;1.99;100.00;102502.84;5011788;28;20180;-46
2022/12/03 10:53:20;;;;;;;27.42;17.73;;;;;;;1.98;100.00;102499.31;4992304;28;20160;-42
2022/12/03 10:55:48;;;;;;;24.65;16.55;;;;;;;1.99;100.00;102498.47;4992449;28;20184;-44
2022/12/03 10:58:25;;;;;;;29.92;18.70;;;;;;;1.99;100.00;102492.25;4992335;28;20197;-44
2022/12/03 11:00:54;;;;;;;24.90;16.55;;;;;;;2.05;100.00;102489.78;4992252;28;20534;-44
2022/12/03 11:03:24;;;;;;;24.85;18.15;;;;;;;2.07;100.00;102488.06;4992038;28;20565;-45
2022/12/03 11:05:51;;;;;;;28.10;18.10;;;;;;;2.12;100.00;102490.81;4991950;28;20161;-46
2022/12/03 11:08:23;;;;;;;26.35;17.40;;;;;;;2.03;100.00;102475.63;4991236;28;20162;-46
2022/12/03 11:11:01;;;;;;;26.77;17.98;;;;;;;1.92;100.00;102488.59;4990552;28;20178;-47
2022/12/03 11:13:29;;;;;;;25.73;16.38;;;;;;;2.04;100.00;102488.00;4991518;28;20165;-44
2022/12/03 11:15:56;;;;;;;22.20;16.40;;;;;;;2.15;100.00;102475.91;4991790;28;20220;-42
2022/12/03 11:18:49;;;;;;;29.48;18.48;;;;;;;2.09;100.00;102480.19;4991459;28;20205;-43
2022/12/03 11:21:16;;;;;;;24.05;17.52;;;;;;;2.08;100.00;102486.31;4990980;28;20201;-42
2022/12/03 11:23:44;;;;;;;29.08;18.48;;;;;;;2.02;100.00;102472.09;4991451;28;20538;-43
2022/12/03 11:26:16;;;;;;;27.52;18.05;;;;;;;2.11;100.00;102462.59;4990876;28;20629;-43
2022/12/03 11:28:44;;;;;;;24.15;16.00;;;;;;;2.10;100.00;102448.50;4991251;28;20220;-46
2022/12/03 11:31:32;;;;;;;22.40;16.42;;;;;;;2.18;100.00;102443.38;4991067;28;20629;-43